sensor_id;sensor_type;location;lat;lon;timestamp;P1;durP1;ratioP1;P2;durP2;ratioP2
10651;SDS011;5374;42.742;23.266;2022-11-20T00:01:22;6.80;;;2.00;;
10651;SDS011;5374;42.742;23.266;2022-11-20T00:04:11;2.60;;;1.40;;
10651;SDS011;5374;42.742;23.266;2022-11-20T00:06:58;4.60;;;1.50;;
10651;SDS011;5374;42.742;23.266;2022-11-20T00:09:45;6.77;;;5.73;;
10651;SDS011;5374;42.742;23.266;2022-11-20T00:12:32;14.83;;;8.67;;
10651;SDS011;5374;42.742;23.266;2022-11-20T00:15:20;4.67;;;2.13;;
10651;SDS011;5374;42.742;23.266;2022-11-20T00:18:08;6.13;;;2.10;;
10651;SDS011;5374;42.742;23.266;2022-11-20T00:20:59;3.07;;;1.60;;
10651;SDS011;5374;42.742;23.266;2022-11-20T00:23:48;2.97;;;1.57;;
10651;SDS011;5374;42.742;23.266;2022-11-20T00:26:36;3.43;;;1.60;;
10651;SDS011;5374;42.742;23.266;2022-11-20T00:29:23;4.23;;;1.40;;
10651;SDS011;5374;42.742;23.266;2022-11-20T00:32:11;4.27;;;1.27;;
10651;SDS011;5374;42.742;23.266;2022-11-20T00:34:59;2.40;;;1.30;;
10651;SDS011;5374;42.742;23.266;2022-11-20T00:37:46;3.37;;;1.40;;
10651;SDS011;5374;42.742;23.266;2022-11-20T00:40:33;5.87;;;1.40;;
10651;SDS011;5374;42.742;23.266;2022-11-20T00:43:20;3.70;;;1.60;;
10651;SDS011;5374;42.742;23.266;2022-11-20T00:46:08;4.57;;;1.67;;
10651;SDS011;5374;42.742;23.266;2022-11-20T00:48:57;5.80;;;1.77;;
10651;SDS011;5374;42.742;23.266;2022-11-20T00:51:45;4.67;;;2.00;;
10651;SDS011;5374;42.742;23.266;2022-11-20T00:54:32;6.33;;;1.90;;
10651;SDS011;5374;42.742;23.266;2022-11-20T00:57:19;6.57;;;1.83;;
10651;SDS011;5374;42.742;23.266;2022-11-20T01:00:06;5.20;;;1.47;;
10651;SDS011;5374;42.742;23.266;2022-11-20T01:02:55;6.73;;;1.87;;
10651;SDS011;5374;42.742;23.266;2022-11-20T01:05:43;4.60;;;1.50;;
10651;SDS011;5374;42.742;23.266;2022-11-20T01:08:31;2.63;;;1.73;;
10651;SDS011;5374;42.742;23.266;2022-11-20T01:11:20;3.33;;;1.40;;
10651;SDS011;5374;42.742;23.266;2022-11-20T01:14:09;3.53;;;1.63;;
10651;SDS011;5374;42.742;23.266;2022-11-20T01:16:58;5.07;;;1.80;;
10651;SDS011;5374;42.742;23.266;2022-11-20T01:19:45;3.17;;;1.60;;
10651;SDS011;5374;42.742;23.266;2022-11-20T01:22:36;4.30;;;1.80;;
10651;SDS011;5374;42.742;23.266;2022-11-20T01:25:24;5.33;;;2.00;;
10651;SDS011;5374;42.742;23.266;2022-11-20T01:28:11;4.13;;;1.50;;
10651;SDS011;5374;42.742;23.266;2022-11-20T01:30:59;6.37;;;1.53;;
10651;SDS011;5374;42.742;23.266;2022-11-20T01:33:47;5.93;;;1.90;;
10651;SDS011;5374;42.742;23.266;2022-11-20T01:36:36;5.53;;;1.87;;
10651;SDS011;5374;42.742;23.266;2022-11-20T01:39:25;4.40;;;1.63;;
10651;SDS011;5374;42.742;23.266;2022-11-20T01:42:13;3.40;;;1.40;;
10651;SDS011;5374;42.742;23.266;2022-11-20T01:48:38;2.20;;;1.47;;
10651;SDS011;5374;42.742;23.266;2022-11-20T01:51:30;6.20;;;2.93;;
10651;SDS011;5374;42.742;23.266;2022-11-20T01:54:21;5.70;;;1.70;;
10651;SDS011;5374;42.742;23.266;2022-11-20T01:57:14;3.33;;;2.17;;
10651;SDS011;5374;42.742;23.266;2022-11-20T02:00:04;12.30;;;9.00;;
10651;SDS011;5374;42.742;23.266;2022-11-20T02:02:54;3.57;;;1.50;;
10651;SDS011;5374;42.742;23.266;2022-11-20T02:05:45;2.90;;;1.67;;
10651;SDS011;5374;42.742;23.266;2022-11-20T02:08:38;3.83;;;1.30;;
10651;SDS011;5374;42.742;23.266;2022-11-20T02:11:25;2.63;;;1.37;;
10651;SDS011;5374;42.742;23.266;2022-11-20T02:14:14;2.70;;;1.40;;
10651;SDS011;5374;42.742;23.266;2022-11-20T02:17:00;1.97;;;1.33;;
10651;SDS011;5374;42.742;23.266;2022-11-20T02:19:47;2.87;;;1.40;;
10651;SDS011;5374;42.742;23.266;2022-11-20T02:22:35;2.13;;;1.30;;
10651;SDS011;5374;42.742;23.266;2022-11-20T02:25:28;4.43;;;1.57;;
10651;SDS011;5374;42.742;23.266;2022-11-20T02:28:19;2.53;;;1.30;;
10651;SDS011;5374;42.742;23.266;2022-11-20T02:31:07;4.70;;;1.50;;
10651;SDS011;5374;42.742;23.266;2022-11-20T02:33:55;6.50;;;1.97;;
10651;SDS011;5374;42.742;23.266;2022-11-20T02:36:42;5.17;;;1.50;;
10651;SDS011;5374;42.742;23.266;2022-11-20T02:39:31;3.53;;;1.33;;
10651;SDS011;5374;42.742;23.266;2022-11-20T02:42:19;3.57;;;1.50;;
10651;SDS011;5374;42.742;23.266;2022-11-20T02:45:07;3.13;;;1.40;;
10651;SDS011;5374;42.742;23.266;2022-11-20T02:47:55;5.03;;;1.67;;
10651;SDS011;5374;42.742;23.266;2022-11-20T02:50:42;4.20;;;1.53;;
10651;SDS011;5374;42.742;23.266;2022-11-20T02:53:29;4.47;;;1.70;;
10651;SDS011;5374;42.742;23.266;2022-11-20T02:56:16;5.53;;;1.70;;
10651;SDS011;5374;42.742;23.266;2022-11-20T02:59:05;5.00;;;1.70;;
10651;SDS011;5374;42.742;23.266;2022-11-20T03:01:52;4.83;;;1.80;;
10651;SDS011;5374;42.742;23.266;2022-11-20T03:04:39;4.13;;;1.53;;
10651;SDS011;5374;42.742;23.266;2022-11-20T03:07:26;5.03;;;1.43;;
10651;SDS011;5374;42.742;23.266;2022-11-20T03:10:13;6.60;;;1.80;;
10651;SDS011;5374;42.742;23.266;2022-11-20T03:13:01;4.20;;;1.60;;
10651;SDS011;5374;42.742;23.266;2022-11-20T03:15:49;3.27;;;1.70;;
10651;SDS011;5374;42.742;23.266;2022-11-20T03:18:37;4.97;;;1.50;;
10651;SDS011;5374;42.742;23.266;2022-11-20T03:21:24;5.60;;;1.80;;
10651;SDS011;5374;42.742;23.266;2022-11-20T03:24:12;5.27;;;2.00;;
10651;SDS011;5374;42.742;23.266;2022-11-20T03:26:59;6.37;;;1.93;;
10651;SDS011;5374;42.742;23.266;2022-11-20T03:29:46;5.07;;;1.70;;
10651;SDS011;5374;42.742;23.266;2022-11-20T03:32:35;4.60;;;2.00;;
10651;SDS011;5374;42.742;23.266;2022-11-20T03:35:22;5.10;;;2.37;;
10651;SDS011;5374;42.742;23.266;2022-11-20T03:38:09;9.23;;;5.97;;
10651;SDS011;5374;42.742;23.266;2022-11-20T03:40:57;6.27;;;2.60;;
10651;SDS011;5374;42.742;23.266;2022-11-20T03:43:49;4.43;;;1.73;;
10651;SDS011;5374;42.742;23.266;2022-11-20T03:46:37;4.47;;;1.63;;
10651;SDS011;5374;42.742;23.266;2022-11-20T03:49:26;4.90;;;1.60;;
10651;SDS011;5374;42.742;23.266;2022-11-20T03:52:14;7.37;;;1.70;;
10651;SDS011;5374;42.742;23.266;2022-11-20T03:55:01;4.30;;;1.83;;
10651;SDS011;5374;42.742;23.266;2022-11-20T03:57:48;9.60;;;7.43;;
10651;SDS011;5374;42.742;23.266;2022-11-20T04:00:35;6.27;;;3.00;;
10651;SDS011;5374;42.742;23.266;2022-11-20T04:03:22;6.97;;;2.70;;
10651;SDS011;5374;42.742;23.266;2022-11-20T04:06:12;7.73;;;2.00;;
10651;SDS011;5374;42.742;23.266;2022-11-20T04:09:01;5.87;;;2.80;;
10651;SDS011;5374;42.742;23.266;2022-11-20T04:11:49;8.03;;;1.67;;
10651;SDS011;5374;42.742;23.266;2022-11-20T04:14:36;6.20;;;1.57;;
10651;SDS011;5374;42.742;23.266;2022-11-20T04:17:23;5.50;;;3.20;;
10651;SDS011;5374;42.742;23.266;2022-11-20T04:20:11;6.20;;;2.60;;
10651;SDS011;5374;42.742;23.266;2022-11-20T04:22:59;5.03;;;2.90;;
10651;SDS011;5374;42.742;23.266;2022-11-20T04:25:46;7.67;;;3.30;;
10651;SDS011;5374;42.742;23.266;2022-11-20T04:28:33;7.57;;;3.30;;
10651;SDS011;5374;42.742;23.266;2022-11-20T04:31:21;2.63;;;1.47;;
10651;SDS011;5374;42.742;23.266;2022-11-20T04:34:10;4.47;;;1.50;;
10651;SDS011;5374;42.742;23.266;2022-11-20T04:36:58;6.20;;;3.13;;
10651;SDS011;5374;42.742;23.266;2022-11-20T04:39:47;4.47;;;3.03;;
10651;SDS011;5374;42.742;23.266;2022-11-20T04:42:34;3.70;;;1.50;;
10651;SDS011;5374;42.742;23.266;2022-11-20T04:45:21;3.20;;;1.77;;
10651;SDS011;5374;42.742;23.266;2022-11-20T04:48:09;3.97;;;2.30;;
10651;SDS011;5374;42.742;23.266;2022-11-20T04:50:56;5.47;;;4.00;;
10651;SDS011;5374;42.742;23.266;2022-11-20T04:53:44;18.30;;;13.63;;
10651;SDS011;5374;42.742;23.266;2022-11-20T04:56:32;5.67;;;2.10;;
10651;SDS011;5374;42.742;23.266;2022-11-20T04:59:19;5.20;;;2.60;;
10651;SDS011;5374;42.742;23.266;2022-11-20T05:02:07;71.63;;;46.50;;
10651;SDS011;5374;42.742;23.266;2022-11-20T05:04:55;20.27;;;11.80;;
10651;SDS011;5374;42.742;23.266;2022-11-20T05:07:42;6.33;;;2.10;;
10651;SDS011;5374;42.742;23.266;2022-11-20T05:10:29;2.90;;;1.97;;
10651;SDS011;5374;42.742;23.266;2022-11-20T05:13:18;15.87;;;11.00;;
10651;SDS011;5374;42.742;23.266;2022-11-20T05:16:06;7.20;;;3.03;;
10651;SDS011;5374;42.742;23.266;2022-11-20T05:18:55;33.73;;;25.07;;
10651;SDS011;5374;42.742;23.266;2022-11-20T05:21:43;14.07;;;9.33;;
10651;SDS011;5374;42.742;23.266;2022-11-20T05:24:30;10.70;;;6.80;;
10651;SDS011;5374;42.742;23.266;2022-11-20T05:27:17;5.10;;;3.93;;
10651;SDS011;5374;42.742;23.266;2022-11-20T05:30:07;5.10;;;3.20;;
10651;SDS011;5374;42.742;23.266;2022-11-20T05:32:55;9.43;;;8.20;;
10651;SDS011;5374;42.742;23.266;2022-11-20T05:35:42;4.73;;;3.53;;
10651;SDS011;5374;42.742;23.266;2022-11-20T05:38:30;10.27;;;4.70;;
10651;SDS011;5374;42.742;23.266;2022-11-20T05:41:18;10.60;;;7.23;;
10651;SDS011;5374;42.742;23.266;2022-11-20T05:44:06;2.93;;;1.30;;
10651;SDS011;5374;42.742;23.266;2022-11-20T05:46:55;8.50;;;6.70;;
10651;SDS011;5374;42.742;23.266;2022-11-20T05:49:42;2.20;;;1.50;;
10651;SDS011;5374;42.742;23.266;2022-11-20T05:52:29;8.10;;;4.67;;
10651;SDS011;5374;42.742;23.266;2022-11-20T05:55:17;5.33;;;2.17;;
10651;SDS011;5374;42.742;23.266;2022-11-20T05:58:04;4.00;;;2.30;;
10651;SDS011;5374;42.742;23.266;2022-11-20T06:00:51;4.30;;;2.40;;
10651;SDS011;5374;42.742;23.266;2022-11-20T06:03:40;4.87;;;2.10;;
10651;SDS011;5374;42.742;23.266;2022-11-20T06:06:31;6.77;;;2.20;;
10651;SDS011;5374;42.742;23.266;2022-11-20T06:09:18;4.87;;;2.60;;
10651;SDS011;5374;42.742;23.266;2022-11-20T06:12:05;3.63;;;1.67;;
10651;SDS011;5374;42.742;23.266;2022-11-20T06:14:53;3.40;;;1.43;;
10651;SDS011;5374;42.742;23.266;2022-11-20T06:17:40;2.63;;;1.60;;
10651;SDS011;5374;42.742;23.266;2022-11-20T06:20:28;5.13;;;1.80;;
10651;SDS011;5374;42.742;23.266;2022-11-20T06:23:16;5.43;;;1.70;;
10651;SDS011;5374;42.742;23.266;2022-11-20T06:26:03;3.77;;;1.73;;
10651;SDS011;5374;42.742;23.266;2022-11-20T06:28:51;4.30;;;2.07;;
10651;SDS011;5374;42.742;23.266;2022-11-20T06:31:39;10.53;;;3.77;;
10651;SDS011;5374;42.742;23.266;2022-11-20T06:34:27;6.00;;;2.23;;
10651;SDS011;5374;42.742;23.266;2022-11-20T06:37:16;3.97;;;2.43;;
10651;SDS011;5374;42.742;23.266;2022-11-20T06:40:04;4.90;;;1.60;;
10651;SDS011;5374;42.742;23.266;2022-11-20T06:42:53;7.67;;;3.53;;
10651;SDS011;5374;42.742;23.266;2022-11-20T06:45:40;7.27;;;1.93;;
10651;SDS011;5374;42.742;23.266;2022-11-20T06:48:28;4.03;;;1.70;;
10651;SDS011;5374;42.742;23.266;2022-11-20T06:51:16;6.47;;;1.90;;
10651;SDS011;5374;42.742;23.266;2022-11-20T06:54:05;7.73;;;3.07;;
10651;SDS011;5374;42.742;23.266;2022-11-20T06:56:52;3.70;;;2.00;;
10651;SDS011;5374;42.742;23.266;2022-11-20T06:59:39;5.63;;;2.83;;
10651;SDS011;5374;42.742;23.266;2022-11-20T07:02:26;7.87;;;3.57;;
10651;SDS011;5374;42.742;23.266;2022-11-20T07:05:14;7.63;;;4.90;;
10651;SDS011;5374;42.742;23.266;2022-11-20T07:08:01;5.53;;;2.90;;
10651;SDS011;5374;42.742;23.266;2022-11-20T07:10:50;3.70;;;1.97;;
10651;SDS011;5374;42.742;23.266;2022-11-20T07:13:37;3.90;;;1.70;;
10651;SDS011;5374;42.742;23.266;2022-11-20T07:16:24;5.00;;;1.90;;
10651;SDS011;5374;42.742;23.266;2022-11-20T07:19:13;5.47;;;1.97;;
10651;SDS011;5374;42.742;23.266;2022-11-20T07:22:00;4.17;;;2.50;;
10651;SDS011;5374;42.742;23.266;2022-11-20T07:24:48;3.30;;;2.23;;
10651;SDS011;5374;42.742;23.266;2022-11-20T07:27:37;6.07;;;3.67;;
10651;SDS011;5374;42.742;23.266;2022-11-20T07:30:24;5.57;;;2.77;;
10651;SDS011;5374;42.742;23.266;2022-11-20T07:33:13;5.57;;;3.30;;
10651;SDS011;5374;42.742;23.266;2022-11-20T07:36:01;6.23;;;3.63;;
10651;SDS011;5374;42.742;23.266;2022-11-20T07:38:48;6.93;;;3.20;;
10651;SDS011;5374;42.742;23.266;2022-11-20T07:41:36;5.67;;;2.13;;
10651;SDS011;5374;42.742;23.266;2022-11-20T07:44:24;5.03;;;2.00;;
10651;SDS011;5374;42.742;23.266;2022-11-20T07:47:11;6.30;;;2.00;;
10651;SDS011;5374;42.742;23.266;2022-11-20T07:49:59;7.27;;;2.90;;
10651;SDS011;5374;42.742;23.266;2022-11-20T07:52:46;6.83;;;3.43;;
10651;SDS011;5374;42.742;23.266;2022-11-20T07:55:33;6.60;;;2.30;;
10651;SDS011;5374;42.742;23.266;2022-11-20T07:58:20;8.90;;;3.90;;
10651;SDS011;5374;42.742;23.266;2022-11-20T08:01:09;8.40;;;3.50;;
10651;SDS011;5374;42.742;23.266;2022-11-20T08:03:57;8.47;;;3.80;;
10651;SDS011;5374;42.742;23.266;2022-11-20T08:06:44;6.43;;;4.10;;
10651;SDS011;5374;42.742;23.266;2022-11-20T08:09:31;25.87;;;16.77;;
10651;SDS011;5374;42.742;23.266;2022-11-20T08:12:18;17.33;;;11.33;;
10651;SDS011;5374;42.742;23.266;2022-11-20T08:15:24;13.83;;;6.83;;
10651;SDS011;5374;42.742;23.266;2022-11-20T08:18:12;9.93;;;2.83;;
10651;SDS011;5374;42.742;23.266;2022-11-20T08:21:01;6.57;;;2.07;;
10651;SDS011;5374;42.742;23.266;2022-11-20T08:23:50;5.67;;;2.10;;
10651;SDS011;5374;42.742;23.266;2022-11-20T08:26:37;6.67;;;2.33;;
10651;SDS011;5374;42.742;23.266;2022-11-20T08:29:25;7.30;;;2.30;;
10651;SDS011;5374;42.742;23.266;2022-11-20T08:32:13;5.50;;;1.97;;
10651;SDS011;5374;42.742;23.266;2022-11-20T08:35:01;7.87;;;1.80;;
10651;SDS011;5374;42.742;23.266;2022-11-20T08:37:49;6.90;;;2.27;;
10651;SDS011;5374;42.742;23.266;2022-11-20T08:40:36;4.57;;;1.80;;
10651;SDS011;5374;42.742;23.266;2022-11-20T08:43:47;7.40;;;2.03;;
10651;SDS011;5374;42.742;23.266;2022-11-20T08:46:35;7.10;;;2.20;;
10651;SDS011;5374;42.742;23.266;2022-11-20T08:49:24;7.70;;;2.40;;
10651;SDS011;5374;42.742;23.266;2022-11-20T08:52:13;5.50;;;2.30;;
10651;SDS011;5374;42.742;23.266;2022-11-20T08:55:00;6.93;;;2.50;;
10651;SDS011;5374;42.742;23.266;2022-11-20T08:57:47;8.03;;;2.37;;
10651;SDS011;5374;42.742;23.266;2022-11-20T09:00:34;7.70;;;2.30;;
10651;SDS011;5374;42.742;23.266;2022-11-20T09:03:22;7.67;;;2.73;;
10651;SDS011;5374;42.742;23.266;2022-11-20T09:06:12;10.13;;;3.10;;
10651;SDS011;5374;42.742;23.266;2022-11-20T09:09:01;6.23;;;2.87;;
10651;SDS011;5374;42.742;23.266;2022-11-20T09:11:48;4.27;;;2.40;;
10651;SDS011;5374;42.742;23.266;2022-11-20T09:14:36;4.80;;;2.80;;
10651;SDS011;5374;42.742;23.266;2022-11-20T09:17:23;7.10;;;2.50;;
10651;SDS011;5374;42.742;23.266;2022-11-20T09:20:10;8.53;;;2.90;;
10651;SDS011;5374;42.742;23.266;2022-11-20T09:22:57;8.93;;;3.30;;
10651;SDS011;5374;42.742;23.266;2022-11-20T09:25:46;5.80;;;2.80;;
10651;SDS011;5374;42.742;23.266;2022-11-20T09:28:33;5.90;;;2.90;;
10651;SDS011;5374;42.742;23.266;2022-11-20T09:31:21;4.57;;;2.33;;
10651;SDS011;5374;42.742;23.266;2022-11-20T09:34:11;8.97;;;2.83;;
10651;SDS011;5374;42.742;23.266;2022-11-20T09:36:58;7.37;;;2.40;;
10651;SDS011;5374;42.742;23.266;2022-11-20T09:39:46;6.63;;;2.80;;
10651;SDS011;5374;42.742;23.266;2022-11-20T09:42:36;7.93;;;3.53;;
10651;SDS011;5374;42.742;23.266;2022-11-20T09:45:37;9.30;;;4.70;;
10651;SDS011;5374;42.742;23.266;2022-11-20T09:48:36;7.77;;;3.67;;
10651;SDS011;5374;42.742;23.266;2022-11-20T09:51:35;7.80;;;3.93;;
10651;SDS011;5374;42.742;23.266;2022-11-20T09:54:30;9.40;;;6.13;;
10651;SDS011;5374;42.742;23.266;2022-11-20T09:57:21;6.33;;;2.93;;
10651;SDS011;5374;42.742;23.266;2022-11-20T10:03:10;6.57;;;3.73;;
10651;SDS011;5374;42.742;23.266;2022-11-20T10:06:01;8.37;;;3.60;;
10651;SDS011;5374;42.742;23.266;2022-11-20T10:08:54;4.67;;;2.50;;
10651;SDS011;5374;42.742;23.266;2022-11-20T10:11:49;8.10;;;3.47;;
10651;SDS011;5374;42.742;23.266;2022-11-20T10:14:49;8.17;;;4.50;;
10651;SDS011;5374;42.742;23.266;2022-11-20T10:18:11;10.93;;;4.77;;
10651;SDS011;5374;42.742;23.266;2022-11-20T10:21:12;10.37;;;4.10;;
10651;SDS011;5374;42.742;23.266;2022-11-20T10:24:21;9.10;;;4.23;;
10651;SDS011;5374;42.742;23.266;2022-11-20T10:27:30;8.07;;;4.20;;
10651;SDS011;5374;42.742;23.266;2022-11-20T10:30:27;8.20;;;3.30;;
10651;SDS011;5374;42.742;23.266;2022-11-20T10:33:17;10.20;;;3.73;;
10651;SDS011;5374;42.742;23.266;2022-11-20T10:36:10;11.77;;;4.33;;
10651;SDS011;5374;42.742;23.266;2022-11-20T10:39:05;10.50;;;3.80;;
10651;SDS011;5374;42.742;23.266;2022-11-20T10:41:57;11.50;;;3.43;;
10651;SDS011;5374;42.742;23.266;2022-11-20T10:44:47;10.60;;;3.47;;
10651;SDS011;5374;42.742;23.266;2022-11-20T10:47:48;14.50;;;4.73;;
10651;SDS011;5374;42.742;23.266;2022-11-20T10:50:37;10.10;;;4.23;;
10651;SDS011;5374;42.742;23.266;2022-11-20T10:53:44;14.23;;;4.80;;
10651;SDS011;5374;42.742;23.266;2022-11-20T10:56:40;10.63;;;2.73;;
10651;SDS011;5374;42.742;23.266;2022-11-20T10:59:35;7.53;;;2.00;;
10651;SDS011;5374;42.742;23.266;2022-11-20T11:02:32;4.07;;;1.50;;
10651;SDS011;5374;42.742;23.266;2022-11-20T11:05:27;2.63;;;1.60;;
10651;SDS011;5374;42.742;23.266;2022-11-20T11:08:24;4.80;;;2.00;;
10651;SDS011;5374;42.742;23.266;2022-11-20T11:11:18;3.67;;;1.60;;
10651;SDS011;5374;42.742;23.266;2022-11-20T11:14:09;3.93;;;1.93;;
10651;SDS011;5374;42.742;23.266;2022-11-20T11:16:59;4.40;;;1.63;;
10651;SDS011;5374;42.742;23.266;2022-11-20T11:19:56;3.80;;;1.50;;
10651;SDS011;5374;42.742;23.266;2022-11-20T11:22:48;3.63;;;1.63;;
10651;SDS011;5374;42.742;23.266;2022-11-20T11:25:38;3.20;;;2.13;;
10651;SDS011;5374;42.742;23.266;2022-11-20T11:28:25;3.90;;;2.40;;
10651;SDS011;5374;42.742;23.266;2022-11-20T11:31:21;5.93;;;2.93;;
10651;SDS011;5374;42.742;23.266;2022-11-20T11:34:11;2.43;;;1.60;;
10651;SDS011;5374;42.742;23.266;2022-11-20T11:37:00;4.60;;;1.47;;
10651;SDS011;5374;42.742;23.266;2022-11-20T11:39:49;5.73;;;2.03;;
10651;SDS011;5374;42.742;23.266;2022-11-20T11:42:41;4.40;;;2.27;;
10651;SDS011;5374;42.742;23.266;2022-11-20T11:45:29;5.77;;;2.70;;
10651;SDS011;5374;42.742;23.266;2022-11-20T11:48:15;5.80;;;2.70;;
10651;SDS011;5374;42.742;23.266;2022-11-20T11:51:07;4.27;;;2.20;;
10651;SDS011;5374;42.742;23.266;2022-11-20T11:53:55;4.37;;;2.00;;
10651;SDS011;5374;42.742;23.266;2022-11-20T11:56:45;4.40;;;1.87;;
10651;SDS011;5374;42.742;23.266;2022-11-20T11:59:38;5.30;;;2.10;;
10651;SDS011;5374;42.742;23.266;2022-11-20T12:02:35;2.20;;;1.30;;
10651;SDS011;5374;42.742;23.266;2022-11-20T12:05:27;3.53;;;1.20;;
10651;SDS011;5374;42.742;23.266;2022-11-20T12:08:18;1.70;;;0.90;;
10651;SDS011;5374;42.742;23.266;2022-11-20T12:11:11;3.27;;;1.70;;
10651;SDS011;5374;42.742;23.266;2022-11-20T12:14:04;5.13;;;1.20;;
10651;SDS011;5374;42.742;23.266;2022-11-20T12:17:00;2.43;;;1.30;;
10651;SDS011;5374;42.742;23.266;2022-11-20T12:19:48;2.20;;;1.23;;
10651;SDS011;5374;42.742;23.266;2022-11-20T12:22:38;6.17;;;1.63;;
10651;SDS011;5374;42.742;23.266;2022-11-20T12:25:36;2.47;;;1.57;;
10651;SDS011;5374;42.742;23.266;2022-11-20T12:28:30;5.23;;;1.60;;
10651;SDS011;5374;42.742;23.266;2022-11-20T12:31:34;5.37;;;1.93;;
10651;SDS011;5374;42.742;23.266;2022-11-20T12:34:40;6.07;;;4.77;;
10651;SDS011;5374;42.742;23.266;2022-11-20T12:37:37;10.03;;;6.50;;
10651;SDS011;5374;42.742;23.266;2022-11-20T12:40:34;5.57;;;4.30;;
10651;SDS011;5374;42.742;23.266;2022-11-20T12:43:28;6.57;;;3.87;;
10651;SDS011;5374;42.742;23.266;2022-11-20T12:46:38;6.60;;;4.50;;
10651;SDS011;5374;42.742;23.266;2022-11-20T12:49:32;5.87;;;4.87;;
10651;SDS011;5374;42.742;23.266;2022-11-20T12:55:36;7.97;;;4.07;;
10651;SDS011;5374;42.742;23.266;2022-11-20T12:58:33;9.00;;;4.40;;
10651;SDS011;5374;42.742;23.266;2022-11-20T13:01:32;11.20;;;5.93;;
10651;SDS011;5374;42.742;23.266;2022-11-20T13:04:34;6.80;;;3.80;;
10651;SDS011;5374;42.742;23.266;2022-11-20T13:07:34;13.00;;;10.23;;
10651;SDS011;5374;42.742;23.266;2022-11-20T13:10:26;8.20;;;5.27;;
10651;SDS011;5374;42.742;23.266;2022-11-20T13:13:22;10.13;;;5.53;;
10651;SDS011;5374;42.742;23.266;2022-11-20T13:16:16;30.77;;;21.07;;
10651;SDS011;5374;42.742;23.266;2022-11-20T13:19:11;40.13;;;28.90;;
10651;SDS011;5374;42.742;23.266;2022-11-20T13:21:59;21.73;;;16.17;;
10651;SDS011;5374;42.742;23.266;2022-11-20T13:24:50;14.87;;;9.87;;
10651;SDS011;5374;42.742;23.266;2022-11-20T13:27:47;7.57;;;5.10;;
10651;SDS011;5374;42.742;23.266;2022-11-20T13:30:36;9.53;;;6.10;;
10651;SDS011;5374;42.742;23.266;2022-11-20T13:33:35;10.63;;;7.40;;
10651;SDS011;5374;42.742;23.266;2022-11-20T13:36:27;7.50;;;5.47;;
10651;SDS011;5374;42.742;23.266;2022-11-20T13:39:23;6.43;;;3.90;;
10651;SDS011;5374;42.742;23.266;2022-11-20T13:42:20;8.20;;;5.93;;
10651;SDS011;5374;42.742;23.266;2022-11-20T13:45:22;9.67;;;5.73;;
10651;SDS011;5374;42.742;23.266;2022-11-20T13:48:19;12.33;;;8.13;;
10651;SDS011;5374;42.742;23.266;2022-11-20T13:51:23;9.17;;;5.63;;
10651;SDS011;5374;42.742;23.266;2022-11-20T13:54:30;7.80;;;6.30;;
10651;SDS011;5374;42.742;23.266;2022-11-20T13:57:42;11.90;;;8.90;;
10651;SDS011;5374;42.742;23.266;2022-11-20T14:00:50;7.77;;;5.07;;
10651;SDS011;5374;42.742;23.266;2022-11-20T14:03:41;5.57;;;3.80;;
10651;SDS011;5374;42.742;23.266;2022-11-20T14:06:29;6.57;;;3.50;;
10651;SDS011;5374;42.742;23.266;2022-11-20T14:09:26;6.10;;;4.47;;
10651;SDS011;5374;42.742;23.266;2022-11-20T14:12:15;8.10;;;4.70;;
10651;SDS011;5374;42.742;23.266;2022-11-20T14:15:04;9.83;;;5.07;;
10651;SDS011;5374;42.742;23.266;2022-11-20T14:17:53;6.63;;;4.77;;
10651;SDS011;5374;42.742;23.266;2022-11-20T14:20:40;5.17;;;3.00;;
10651;SDS011;5374;42.742;23.266;2022-11-20T14:23:29;4.53;;;3.27;;
10651;SDS011;5374;42.742;23.266;2022-11-20T14:26:17;13.70;;;10.23;;
10651;SDS011;5374;42.742;23.266;2022-11-20T14:29:10;9.67;;;6.33;;
10651;SDS011;5374;42.742;23.266;2022-11-20T14:31:58;6.50;;;4.17;;
10651;SDS011;5374;42.742;23.266;2022-11-20T14:34:48;6.07;;;3.97;;
10651;SDS011;5374;42.742;23.266;2022-11-20T14:37:37;5.53;;;3.60;;
10651;SDS011;5374;42.742;23.266;2022-11-20T14:40:29;4.93;;;3.50;;
10651;SDS011;5374;42.742;23.266;2022-11-20T14:43:18;5.97;;;4.07;;
10651;SDS011;5374;42.742;23.266;2022-11-20T14:46:08;6.13;;;3.97;;
10651;SDS011;5374;42.742;23.266;2022-11-20T14:48:56;5.97;;;3.50;;
10651;SDS011;5374;42.742;23.266;2022-11-20T14:51:57;8.10;;;5.13;;
10651;SDS011;5374;42.742;23.266;2022-11-20T14:54:46;13.83;;;8.13;;
10651;SDS011;5374;42.742;23.266;2022-11-20T14:57:35;22.10;;;11.93;;
10651;SDS011;5374;42.742;23.266;2022-11-20T15:00:23;43.33;;;23.73;;
10651;SDS011;5374;42.742;23.266;2022-11-20T15:03:14;63.90;;;32.77;;
10651;SDS011;5374;42.742;23.266;2022-11-20T15:06:03;63.47;;;31.27;;
10651;SDS011;5374;42.742;23.266;2022-11-20T15:08:53;45.47;;;23.73;;
10651;SDS011;5374;42.742;23.266;2022-11-20T15:11:40;50.00;;;22.70;;
10651;SDS011;5374;42.742;23.266;2022-11-20T15:14:40;43.63;;;19.77;;
10651;SDS011;5374;42.742;23.266;2022-11-20T15:17:27;17.50;;;10.03;;
10651;SDS011;5374;42.742;23.266;2022-11-20T15:20:15;10.07;;;7.70;;
10651;SDS011;5374;42.742;23.266;2022-11-20T15:23:07;34.13;;;18.47;;
10651;SDS011;5374;42.742;23.266;2022-11-20T15:25:58;37.93;;;28.83;;
10651;SDS011;5374;42.742;23.266;2022-11-20T15:28:46;14.27;;;10.97;;
10651;SDS011;5374;42.742;23.266;2022-11-20T15:31:35;8.40;;;6.07;;
10651;SDS011;5374;42.742;23.266;2022-11-20T15:34:22;6.47;;;5.20;;
10651;SDS011;5374;42.742;23.266;2022-11-20T15:37:10;16.57;;;8.63;;
10651;SDS011;5374;42.742;23.266;2022-11-20T15:39:57;18.70;;;9.07;;
10651;SDS011;5374;42.742;23.266;2022-11-20T15:42:45;19.50;;;9.13;;
10651;SDS011;5374;42.742;23.266;2022-11-20T15:45:47;18.20;;;7.80;;
10651;SDS011;5374;42.742;23.266;2022-11-20T15:48:38;11.23;;;9.30;;
10651;SDS011;5374;42.742;23.266;2022-11-20T15:51:27;19.77;;;13.47;;
10651;SDS011;5374;42.742;23.266;2022-11-20T15:54:16;19.33;;;10.47;;
10651;SDS011;5374;42.742;23.266;2022-11-20T15:57:06;21.87;;;8.90;;
10651;SDS011;5374;42.742;23.266;2022-11-20T15:59:55;27.50;;;10.50;;
10651;SDS011;5374;42.742;23.266;2022-11-20T16:02:43;22.23;;;10.00;;
10651;SDS011;5374;42.742;23.266;2022-11-20T16:05:30;20.13;;;10.00;;
10651;SDS011;5374;42.742;23.266;2022-11-20T16:08:18;24.07;;;10.90;;
10651;SDS011;5374;42.742;23.266;2022-11-20T16:11:05;19.93;;;9.27;;
10651;SDS011;5374;42.742;23.266;2022-11-20T16:13:52;16.67;;;9.93;;
10651;SDS011;5374;42.742;23.266;2022-11-20T16:16:58;10.03;;;8.03;;
10651;SDS011;5374;42.742;23.266;2022-11-20T16:19:45;28.67;;;21.37;;
10651;SDS011;5374;42.742;23.266;2022-11-20T16:22:32;102.27;;;89.93;;
10651;SDS011;5374;42.742;23.266;2022-11-20T16:25:19;24.93;;;20.87;;
10651;SDS011;5374;42.742;23.266;2022-11-20T16:28:06;25.40;;;22.23;;
10651;SDS011;5374;42.742;23.266;2022-11-20T16:30:54;16.47;;;11.60;;
10651;SDS011;5374;42.742;23.266;2022-11-20T16:33:44;11.27;;;10.03;;
10651;SDS011;5374;42.742;23.266;2022-11-20T16:36:36;12.37;;;8.43;;
10651;SDS011;5374;42.742;23.266;2022-11-20T16:39:27;14.03;;;8.23;;
10651;SDS011;5374;42.742;23.266;2022-11-20T16:42:14;14.03;;;8.03;;
10651;SDS011;5374;42.742;23.266;2022-11-20T16:45:02;12.63;;;9.33;;
10651;SDS011;5374;42.742;23.266;2022-11-20T16:47:50;20.47;;;12.20;;
10651;SDS011;5374;42.742;23.266;2022-11-20T16:50:39;23.10;;;15.63;;
10651;SDS011;5374;42.742;23.266;2022-11-20T16:53:31;26.07;;;20.10;;
10651;SDS011;5374;42.742;23.266;2022-11-20T16:56:20;22.30;;;18.33;;
10651;SDS011;5374;42.742;23.266;2022-11-20T16:59:09;25.50;;;19.53;;
10651;SDS011;5374;42.742;23.266;2022-11-20T17:01:56;17.60;;;13.37;;
10651;SDS011;5374;42.742;23.266;2022-11-20T17:04:43;24.80;;;16.87;;
10651;SDS011;5374;42.742;23.266;2022-11-20T17:07:31;23.40;;;16.60;;
10651;SDS011;5374;42.742;23.266;2022-11-20T17:10:19;24.03;;;18.00;;